createdAt,value
2023-04-09T00:00:00.470Z,100950
2023-04-09T00:01:09.535Z,100950
2023-04-09T00:02:00.447Z,100950
2023-04-09T00:03:00.639Z,100940
2023-04-09T00:04:00.494Z,100950
2023-04-09T00:05:00.724Z,100950
2023-04-09T00:06:00.557Z,100950
2023-04-09T00:07:00.418Z,100950
2023-04-09T00:08:00.406Z,100950
2023-04-09T00:09:00.442Z,100950
2023-04-09T00:10:00.571Z,100950
2023-04-09T00:11:00.431Z,100950
2023-04-09T00:12:00.502Z,100950
2023-04-09T00:13:00.508Z,100950
2023-04-09T00:14:00.487Z,100950
2023-04-09T00:15:00.422Z,100950
2023-04-09T00:16:00.419Z,100940
2023-04-09T00:17:00.412Z,100940
2023-04-09T00:18:00.487Z,100940
2023-04-09T00:19:00.430Z,100950
2023-04-09T00:20:00.434Z,100940
2023-04-09T00:21:00.454Z,100940
2023-04-09T00:22:00.392Z,100950
2023-04-09T00:23:00.402Z,100940
2023-04-09T00:24:00.414Z,100940
2023-04-09T00:25:00.405Z,100940
2023-04-09T00:26:00.422Z,100940
2023-04-09T00:27:00.399Z,100950
2023-04-09T00:28:00.718Z,100950
2023-04-09T00:29:00.425Z,100940
2023-04-09T00:30:00.455Z,100940
2023-04-09T00:31:02.068Z,100940
2023-04-09T00:32:00.467Z,100940
2023-04-09T00:33:00.476Z,100940
2023-04-09T00:34:00.399Z,100940
2023-04-09T00:35:00.400Z,100940
2023-04-09T00:36:00.535Z,100950
2023-04-09T00:37:00.447Z,100940
2023-04-09T00:38:00.444Z,100940
2023-04-09T00:39:00.412Z,100950
2023-04-09T00:40:00.545Z,100940
2023-04-09T00:41:00.492Z,100940
2023-04-09T00:42:01.038Z,100940
2023-04-09T00:43:00.444Z,100940
2023-04-09T00:44:00.426Z,100950
2023-04-09T00:45:00.745Z,100950
2023-04-09T00:46:00.765Z,100950
2023-04-09T00:47:00.434Z,100950
2023-04-09T00:48:00.841Z,100950
2023-04-09T00:49:00.510Z,100950
2023-04-09T00:50:01.485Z,100950
2023-04-09T00:51:00.439Z,100950
2023-04-09T00:52:00.497Z,100950
2023-04-09T00:53:00.595Z,100950
2023-04-09T00:54:00.512Z,100950
2023-04-09T00:55:03.740Z,100950
2023-04-09T00:56:01.261Z,100950
2023-04-09T00:57:00.446Z,100950
2023-04-09T00:58:00.729Z,100950
2023-04-09T00:59:01.641Z,100950
2023-04-09T01:00:00.834Z,100950
2023-04-09T01:01:00.526Z,100950
2023-04-09T01:02:00.513Z,100950
2023-04-09T01:03:01.320Z,100950
2023-04-09T01:04:00.892Z,100950
2023-04-09T01:05:00.620Z,100950
2023-04-09T01:06:11.380Z,100950
2023-04-09T01:07:12.153Z,100950
2023-04-09T01:08:17.539Z,100950
2023-04-09T01:09:13.743Z,100950
2023-04-09T01:10:13.646Z,100950
2023-04-09T01:11:13.556Z,100950
2023-04-09T01:12:11.362Z,100950
2023-04-09T01:13:07.342Z,100950
2023-04-09T01:14:07.574Z,100940
2023-04-09T01:15:13.871Z,100950
2023-04-09T01:16:02.378Z,100950
2023-04-09T01:17:04.790Z,100950
2023-04-09T01:18:06.261Z,100950
2023-04-09T01:19:09.015Z,100950
2023-04-09T01:20:04.076Z,100960
2023-04-09T01:21:08.661Z,100950
2023-04-09T01:22:01.704Z,100960
2023-04-09T01:23:13.053Z,100960
2023-04-09T01:24:20.323Z,100960
2023-04-09T01:25:11.765Z,100960
2023-04-09T01:26:06.484Z,100960
2023-04-09T01:27:05.038Z,100970
2023-04-09T01:28:13.552Z,100970
2023-04-09T01:29:02.219Z,100970
2023-04-09T01:30:03.543Z,100980
2023-04-09T01:31:09.974Z,100970
2023-04-09T01:32:03.666Z,100980
2023-04-09T01:33:02.645Z,100980
2023-04-09T01:34:01.924Z,100980
2023-04-09T01:35:01.898Z,100980
2023-04-09T01:36:03.414Z,100980
2023-04-09T01:37:02.490Z,100980
2023-04-09T01:38:02.403Z,100990
2023-04-09T01:39:01.339Z,100980
2023-04-09T01:40:00.904Z,100980
2023-04-09T01:41:01.429Z,100980
2023-04-09T01:42:01.492Z,100990
2023-04-09T01:43:02.170Z,100990
2023-04-09T01:44:02.684Z,100990
2023-04-09T01:45:01.497Z,100990
2023-04-09T01:46:01.751Z,100990
2023-04-09T01:47:00.480Z,100990
2023-04-09T01:48:02.790Z,100990
2023-04-09T01:49:01.660Z,100990
2023-04-09T01:50:01.879Z,101000
2023-04-09T01:51:00.506Z,100990
2023-04-09T01:52:01.285Z,101000
2023-04-09T01:53:01.176Z,101000
2023-04-09T01:54:00.563Z,101000
2023-04-09T01:55:00.492Z,101000
2023-04-09T01:56:01.110Z,100990
2023-04-09T01:57:00.412Z,101000
2023-04-09T01:58:00.425Z,101000
2023-04-09T01:59:00.435Z,101010
2023-04-09T02:00:00.588Z,101000
2023-04-09T02:01:07.102Z,101010
2023-04-09T02:02:07.206Z,101010
2023-04-09T02:03:06.197Z,101010
2023-04-09T02:04:02.973Z,101000
2023-04-09T02:05:05.903Z,101000
2023-04-09T02:06:08.143Z,101000
2023-04-09T02:07:11.103Z,101000
2023-04-09T02:08:02.854Z,101000
2023-04-09T02:09:01.843Z,101000
2023-04-09T02:10:01.183Z,100990
2023-04-09T02:11:03.448Z,101000
2023-04-09T02:12:03.066Z,100990
2023-04-09T02:13:03.747Z,100990
2023-04-09T02:14:01.233Z,100990
2023-04-09T02:15:02.034Z,100990
2023-04-09T02:16:02.324Z,100990
2023-04-09T02:17:01.006Z,100990
2023-04-09T02:18:00.587Z,100990
2023-04-09T02:19:00.677Z,100990
2023-04-09T02:20:00.418Z,100990
2023-04-09T02:21:00.422Z,100990
2023-04-09T02:22:03.167Z,100990
2023-04-09T02:23:00.408Z,100990
2023-04-09T02:24:00.480Z,100990
2023-04-09T02:25:00.452Z,100990
2023-04-09T02:26:00.643Z,100990
2023-04-09T02:27:00.425Z,100990
2023-04-09T02:28:00.395Z,100990
2023-04-09T02:29:00.509Z,100990
2023-04-09T02:30:00.538Z,100990
2023-04-09T02:31:00.437Z,100990
2023-04-09T02:32:00.423Z,100980
2023-04-09T02:33:00.461Z,100990
2023-04-09T02:34:00.418Z,100990
2023-04-09T02:35:00.458Z,100990
2023-04-09T02:36:00.453Z,100990
2023-04-09T02:37:00.418Z,100990
2023-04-09T02:38:00.922Z,100990
2023-04-09T02:39:00.401Z,100990
2023-04-09T02:40:00.392Z,100990
2023-04-09T02:41:00.449Z,100990
2023-04-09T02:42:00.413Z,100990
2023-04-09T02:43:00.451Z,100990
2023-04-09T02:44:00.448Z,100990
2023-04-09T02:45:00.473Z,100990
2023-04-09T02:46:00.695Z,100990
2023-04-09T02:47:00.515Z,100990
2023-04-09T02:48:00.864Z,100990
2023-04-09T02:49:00.583Z,101000
2023-04-09T02:50:00.439Z,100990
2023-04-09T02:51:00.448Z,101000
2023-04-09T02:52:00.443Z,101000
2023-04-09T02:53:00.449Z,100990
2023-04-09T02:54:00.660Z,101000
2023-04-09T02:55:00.867Z,100990
2023-04-09T02:56:00.428Z,101000
2023-04-09T02:57:00.447Z,100990
2023-04-09T02:58:00.492Z,100990
2023-04-09T02:59:00.523Z,100990
2023-04-09T03:00:00.426Z,101000
2023-04-09T03:01:00.502Z,100990
2023-04-09T03:02:00.648Z,100990
2023-04-09T03:03:00.629Z,100990
2023-04-09T03:04:00.969Z,100990
2023-04-09T03:05:00.441Z,100990
2023-04-09T03:06:00.419Z,100990
2023-04-09T03:07:00.452Z,100990
2023-04-09T03:08:01.351Z,100990
2023-04-09T03:09:00.411Z,100990
2023-04-09T03:10:00.463Z,100990
2023-04-09T03:11:00.407Z,100990
2023-04-09T03:12:00.410Z,100990
2023-04-09T03:13:00.406Z,100990
2023-04-09T03:14:00.415Z,100990
2023-04-09T03:15:00.420Z,100990
2023-04-09T03:16:00.563Z,100980
2023-04-09T03:17:00.395Z,100990
2023-04-09T03:18:00.487Z,100990
2023-04-09T03:19:00.392Z,100980
2023-04-09T03:20:00.410Z,100980
2023-04-09T03:21:07.404Z,100990
2023-04-09T03:22:00.452Z,100980
2023-04-09T03:23:00.396Z,100980
2023-04-09T03:24:00.407Z,100980
2023-04-09T03:25:00.407Z,100980
2023-04-09T03:26:01.537Z,100980
2023-04-09T03:27:00.482Z,100980
2023-04-09T03:28:00.453Z,100980
2023-04-09T03:29:01.497Z,100980
2023-04-09T03:30:00.450Z,100980
2023-04-09T03:31:00.462Z,100980
2023-04-09T03:32:00.431Z,100980
2023-04-09T03:33:00.513Z,100980
2023-04-09T03:34:00.402Z,100980
2023-04-09T03:35:00.424Z,100980
2023-04-09T03:36:00.553Z,100990
2023-04-09T03:37:00.471Z,100980
2023-04-09T03:38:00.464Z,100980
2023-04-09T03:39:00.517Z,100980
2023-04-09T03:40:00.588Z,100980
2023-04-09T03:41:00.418Z,100980
2023-04-09T03:42:00.779Z,100980
2023-04-09T03:43:00.401Z,100980
2023-04-09T03:44:00.415Z,100980
2023-04-09T03:45:00.430Z,100980
2023-04-09T03:46:00.516Z,100980
2023-04-09T03:47:00.470Z,100980
2023-04-09T03:48:00.470Z,100980
2023-04-09T03:49:00.465Z,100980
2023-04-09T03:50:00.549Z,100980
2023-04-09T03:51:00.398Z,100980
2023-04-09T03:52:00.498Z,100980
2023-04-09T03:53:00.408Z,100990
2023-04-09T03:54:00.394Z,100980
2023-04-09T03:55:01.795Z,100990
2023-04-09T03:56:00.414Z,100990
2023-04-09T03:57:00.409Z,100980
2023-04-09T03:58:00.446Z,100980
2023-04-09T03:59:00.395Z,100980
2023-04-09T04:00:00.428Z,100980
2023-04-09T04:01:00.767Z,100980
2023-04-09T04:02:00.477Z,100990
2023-04-09T04:03:00.582Z,100990
2023-04-09T04:04:00.922Z,100990
2023-04-09T04:05:00.471Z,100990
2023-04-09T04:06:01.207Z,100990
2023-04-09T04:07:02.516Z,100990
2023-04-09T04:08:00.412Z,100990
2023-04-09T04:09:00.409Z,100990
2023-04-09T04:10:03.373Z,100990
2023-04-09T04:11:04.061Z,101000
2023-04-09T04:12:00.615Z,101000
2023-04-09T04:13:00.416Z,100990
2023-04-09T04:14:00.415Z,101000
2023-04-09T04:15:00.666Z,101000
2023-04-09T04:16:00.417Z,101000
2023-04-09T04:17:00.432Z,101000
2023-04-09T04:18:00.417Z,101000
2023-04-09T04:19:00.408Z,101000
2023-04-09T04:20:00.447Z,101000
2023-04-09T04:21:00.454Z,101000
2023-04-09T04:22:00.424Z,101000
2023-04-09T04:23:00.512Z,101000
2023-04-09T04:24:00.394Z,101000
2023-04-09T04:25:00.821Z,101010
2023-04-09T04:26:00.397Z,101000
2023-04-09T04:27:00.413Z,101000
2023-04-09T04:28:00.409Z,101010
2023-04-09T04:29:00.445Z,101000
2023-04-09T04:30:00.496Z,101000
2023-04-09T04:31:00.513Z,101010
2023-04-09T04:32:00.566Z,101010
2023-04-09T04:33:00.540Z,101010
2023-04-09T04:34:00.395Z,101010
2023-04-09T04:35:00.442Z,101010
2023-04-09T04:36:04.319Z,101010
2023-04-09T04:37:00.424Z,101010
2023-04-09T04:38:00.464Z,101020
2023-04-09T04:39:00.409Z,101020
2023-04-09T04:40:01.346Z,101020
2023-04-09T04:41:00.727Z,101020
2023-04-09T04:42:00.414Z,101010
2023-04-09T04:43:00.397Z,101010
2023-04-09T04:44:00.420Z,101010
2023-04-09T04:45:00.579Z,101010
2023-04-09T04:46:00.468Z,101010
2023-04-09T04:47:00.403Z,101010
2023-04-09T04:48:00.439Z,101010
2023-04-09T04:49:00.416Z,101020
2023-04-09T04:50:00.490Z,101010
2023-04-09T04:51:01.273Z,101010
2023-04-09T04:52:00.460Z,101010
2023-04-09T04:53:00.404Z,101010
2023-04-09T04:54:00.394Z,101010
2023-04-09T04:55:00.497Z,101010
2023-04-09T04:56:00.422Z,101010
2023-04-09T04:57:00.522Z,101010
2023-04-09T04:58:00.537Z,101010
2023-04-09T04:59:00.409Z,101020
2023-04-09T05:00:00.415Z,101020
2023-04-09T05:01:00.450Z,101020
2023-04-09T05:02:00.559Z,101020
2023-04-09T05:03:00.538Z,101020
2023-04-09T05:04:00.441Z,101020
2023-04-09T05:05:00.424Z,101020
2023-04-09T05:06:00.434Z,101020
2023-04-09T05:07:00.525Z,101020
2023-04-09T05:08:00.408Z,101020
2023-04-09T05:09:00.452Z,101020
2023-04-09T05:10:00.411Z,101020
2023-04-09T05:11:00.413Z,101020
2023-04-09T05:12:00.421Z,101020
2023-04-09T05:13:00.416Z,101020
2023-04-09T05:14:00.414Z,101020
2023-04-09T05:15:00.481Z,101020
2023-04-09T05:16:00.397Z,101020
2023-04-09T05:17:00.677Z,101020
2023-04-09T05:18:00.451Z,101030
2023-04-09T05:19:00.428Z,101030
2023-04-09T05:20:00.464Z,101030
2023-04-09T05:21:00.477Z,101030
2023-04-09T05:22:00.414Z,101030
2023-04-09T05:23:00.458Z,101030
2023-04-09T05:24:00.397Z,101030
2023-04-09T05:25:00.633Z,101030
2023-04-09T05:26:00.406Z,101030
2023-04-09T05:27:00.446Z,101030
2023-04-09T05:28:00.469Z,101030
2023-04-09T05:29:00.404Z,101030
2023-04-09T05:30:01.143Z,101030
2023-04-09T05:31:00.418Z,101030
2023-04-09T05:32:00.769Z,101030
2023-04-09T05:33:00.408Z,101030
2023-04-09T05:34:00.410Z,101030
2023-04-09T05:35:00.432Z,101030
2023-04-09T05:36:00.411Z,101030
2023-04-09T05:37:01.495Z,101030
2023-04-09T05:38:00.396Z,101030
2023-04-09T05:39:00.558Z,101030
2023-04-09T05:40:00.441Z,101030
2023-04-09T05:41:00.412Z,101040
2023-04-09T05:42:00.441Z,101040
2023-04-09T05:43:00.458Z,101040
2023-04-09T05:44:00.893Z,101040
2023-04-09T05:45:00.437Z,101040
2023-04-09T05:46:00.429Z,101040
2023-04-09T05:47:00.429Z,101040
2023-04-09T05:48:00.472Z,101050
2023-04-09T05:49:00.449Z,101050
2023-04-09T05:50:00.415Z,101050
2023-04-09T05:51:01.030Z,101050
2023-04-09T05:52:00.407Z,101050
2023-04-09T05:53:00.406Z,101050
2023-04-09T05:54:01.426Z,101050
2023-04-09T05:55:00.430Z,101050
2023-04-09T05:56:00.416Z,101050
2023-04-09T05:57:00.406Z,101050
2023-04-09T05:58:00.421Z,101050
2023-04-09T05:59:00.414Z,101050
2023-04-09T06:00:00.424Z,101050
2023-04-09T06:01:00.429Z,101050
2023-04-09T06:02:00.516Z,101050
2023-04-09T06:03:00.484Z,101050
2023-04-09T06:04:00.693Z,101050
2023-04-09T06:05:00.454Z,101050
2023-04-09T06:06:00.505Z,101050
2023-04-09T06:07:00.598Z,101050
2023-04-09T06:08:00.835Z,101050
2023-04-09T06:09:00.398Z,101040
2023-04-09T06:10:00.447Z,101040
2023-04-09T06:11:00.682Z,101040
2023-04-09T06:12:00.432Z,101050
2023-04-09T06:13:00.495Z,101050
2023-04-09T06:14:00.403Z,101040
2023-04-09T06:15:00.584Z,101050
2023-04-09T06:16:02.594Z,101050
2023-04-09T06:17:00.413Z,101040
2023-04-09T06:18:00.396Z,101040
2023-04-09T06:19:00.395Z,101040
2023-04-09T06:20:00.414Z,101050
2023-04-09T06:21:01.992Z,101040
2023-04-09T06:22:00.432Z,101050
2023-04-09T06:23:00.434Z,101050
2023-04-09T06:24:00.444Z,101050
2023-04-09T06:25:00.401Z,101050
2023-04-09T06:26:00.841Z,101040
2023-04-09T06:27:00.487Z,101040
2023-04-09T06:28:00.398Z,101040
2023-04-09T06:29:00.432Z,101040
2023-04-09T06:30:00.414Z,101040
2023-04-09T06:31:00.452Z,101040
2023-04-09T06:32:00.417Z,101030
2023-04-09T06:33:00.440Z,101030
2023-04-09T06:34:00.459Z,101030
2023-04-09T06:35:00.397Z,101040
2023-04-09T06:36:00.467Z,101040
2023-04-09T06:37:00.425Z,101040
2023-04-09T06:38:00.407Z,101040
2023-04-09T06:39:00.419Z,101040
2023-04-09T06:40:01.519Z,101040
2023-04-09T06:41:00.393Z,101050
2023-04-09T06:42:00.548Z,101050
2023-04-09T06:43:00.446Z,101060
2023-04-09T06:44:00.555Z,101060
2023-04-09T06:45:00.453Z,101060
2023-04-09T06:46:00.446Z,101060
2023-04-09T06:47:00.409Z,101060
2023-04-09T06:48:00.531Z,101060
2023-04-09T06:49:00.399Z,101060
2023-04-09T06:50:00.516Z,101060
2023-04-09T06:51:00.437Z,101050
2023-04-09T06:52:00.401Z,101050
2023-04-09T06:53:00.965Z,101050
2023-04-09T06:54:00.536Z,101050
2023-04-09T06:55:00.458Z,101050
2023-04-09T06:56:00.480Z,101060
2023-04-09T06:57:00.400Z,101060
2023-04-09T06:58:00.422Z,101070
2023-04-09T06:59:00.413Z,101060
2023-04-09T07:00:00.419Z,101060
2023-04-09T07:01:00.568Z,101060
2023-04-09T07:02:00.736Z,101060
2023-04-09T07:03:00.645Z,101060
2023-04-09T07:04:00.475Z,101070
2023-04-09T07:05:00.584Z,101060
2023-04-09T07:06:00.425Z,101060
2023-04-09T07:07:00.456Z,101070
2023-04-09T07:08:00.404Z,101060
2023-04-09T07:09:00.422Z,101070
2023-04-09T07:10:00.517Z,101060
2023-04-09T07:11:00.449Z,101070
2023-04-09T07:12:00.402Z,101070
2023-04-09T07:13:00.474Z,101070
2023-04-09T07:14:00.420Z,101070
2023-04-09T07:15:02.426Z,101070
2023-04-09T07:16:00.465Z,101070
2023-04-09T07:17:00.394Z,101070
2023-04-09T07:18:00.462Z,101070
2023-04-09T07:19:00.428Z,101070
2023-04-09T07:20:00.692Z,101080
2023-04-09T07:21:00.407Z,101080
2023-04-09T07:22:00.440Z,101080
2023-04-09T07:23:00.405Z,101080
2023-04-09T07:24:00.408Z,101080
2023-04-09T07:25:00.453Z,101080
2023-04-09T07:26:01.291Z,101080
2023-04-09T07:27:02.841Z,101080
2023-04-09T07:28:00.389Z,101080
2023-04-09T07:29:00.435Z,101080
2023-04-09T07:30:00.406Z,101080
2023-04-09T07:31:00.700Z,101080
2023-04-09T07:32:00.421Z,101080
2023-04-09T07:33:00.515Z,101080
2023-04-09T07:34:00.403Z,101080
2023-04-09T07:35:01.986Z,101080
2023-04-09T07:36:00.434Z,101080
2023-04-09T07:37:00.427Z,101090
2023-04-09T07:38:00.396Z,101090
2023-04-09T07:39:00.407Z,101080
2023-04-09T07:40:01.141Z,101090
2023-04-09T07:41:00.408Z,101090
2023-04-09T07:42:01.926Z,101090
2023-04-09T07:43:00.404Z,101080
2023-04-09T07:44:00.418Z,101080
2023-04-09T07:45:00.394Z,101080
2023-04-09T07:46:00.480Z,101080
2023-04-09T07:47:00.526Z,101080
2023-04-09T07:48:00.430Z,101080
2023-04-09T07:49:00.413Z,101080
2023-04-09T07:50:00.426Z,101080
2023-04-09T07:51:00.418Z,101080
2023-04-09T07:52:00.441Z,101080
2023-04-09T07:53:00.401Z,101080
2023-04-09T07:54:00.440Z,101080
2023-04-09T07:55:00.452Z,101080
2023-04-09T07:56:00.393Z,101090
2023-04-09T07:57:00.550Z,101080
2023-04-09T07:58:00.400Z,101080
2023-04-09T07:59:00.473Z,101080
2023-04-09T08:00:00.459Z,101080
2023-04-09T08:01:00.458Z,101080
2023-04-09T08:02:00.544Z,101080
2023-04-09T08:03:00.607Z,101080
2023-04-09T08:04:00.611Z,101080
2023-04-09T08:05:00.629Z,101080
2023-04-09T08:06:00.495Z,101080
2023-04-09T08:07:00.470Z,101090
2023-04-09T08:08:00.442Z,101080
2023-04-09T08:09:00.475Z,101080
2023-04-09T08:10:00.400Z,101080
2023-04-09T08:11:00.439Z,101080
2023-04-09T08:12:00.408Z,101090
2023-04-09T08:13:00.447Z,101090
2023-04-09T08:14:00.416Z,101090
2023-04-09T08:15:00.403Z,101090
2023-04-09T08:16:00.852Z,101090
2023-04-09T08:17:00.417Z,101090
2023-04-09T08:18:00.447Z,101090
2023-04-09T08:19:00.436Z,101090
2023-04-09T08:20:00.406Z,101090
2023-04-09T08:21:03.213Z,101090
2023-04-09T08:22:00.667Z,101080
2023-04-09T08:23:00.396Z,101090
2023-04-09T08:24:00.420Z,101080
2023-04-09T08:25:02.693Z,101080
2023-04-09T08:26:00.403Z,101080
2023-04-09T08:27:00.432Z,101080
2023-04-09T08:28:00.415Z,101080
2023-04-09T08:29:00.405Z,101080
2023-04-09T08:30:00.394Z,101080
2023-04-09T08:31:00.420Z,101080
2023-04-09T08:32:00.522Z,101090
2023-04-09T08:33:00.810Z,101090
2023-04-09T08:34:00.423Z,101090
2023-04-09T08:35:00.449Z,101090
2023-04-09T08:36:03.101Z,101090
2023-04-09T08:37:00.425Z,101090
2023-04-09T08:38:00.454Z,101090
2023-04-09T08:39:00.952Z,101090
2023-04-09T08:40:00.417Z,101090
2023-04-09T08:41:00.401Z,101090
2023-04-09T08:42:00.726Z,101090
2023-04-09T08:43:04.587Z,101090
2023-04-09T08:44:00.397Z,101090
2023-04-09T08:45:03.548Z,101090
2023-04-09T08:46:00.690Z,101090
2023-04-09T08:47:00.657Z,101090
2023-04-09T08:48:02.407Z,101090
2023-04-09T08:49:00.980Z,101090
2023-04-09T08:50:00.519Z,101090
2023-04-09T08:51:00.749Z,101090
2023-04-09T08:52:01.134Z,101090
2023-04-09T08:53:03.496Z,101090
2023-04-09T08:54:04.384Z,101090
2023-04-09T08:55:00.507Z,101090
2023-04-09T08:56:00.407Z,101090
2023-04-09T08:57:03.713Z,101090
2023-04-09T08:58:04.019Z,101090
2023-04-09T08:59:00.434Z,101090
2023-04-09T09:00:00.422Z,101090
2023-04-09T09:01:00.521Z,101090
2023-04-09T09:02:09.224Z,101090
2023-04-09T09:03:05.694Z,101090
2023-04-09T09:04:04.331Z,101090
2023-04-09T09:05:00.495Z,101090
2023-04-09T09:06:00.390Z,101090
2023-04-09T09:07:05.632Z,101090
2023-04-09T09:08:00.640Z,101090
2023-04-09T09:09:11.252Z,101090
2023-04-09T09:10:01.151Z,101100
2023-04-09T09:11:00.406Z,101090
2023-04-09T09:12:00.389Z,101090
2023-04-09T09:13:00.498Z,101090
2023-04-09T09:14:05.924Z,101090
2023-04-09T09:15:00.699Z,101090
2023-04-09T09:16:11.787Z,101090
2023-04-09T09:17:02.729Z,101090
2023-04-09T09:18:00.432Z,101100
2023-04-09T09:19:01.477Z,101100
2023-04-09T09:20:17.926Z,101100
2023-04-09T09:21:12.154Z,101100
2023-04-09T09:22:03.079Z,101100
2023-04-09T09:23:01.252Z,101090
2023-04-09T09:24:00.908Z,101100
2023-04-09T09:25:00.404Z,101100
2023-04-09T09:26:09.936Z,101100
2023-04-09T09:27:01.243Z,101100
2023-04-09T09:28:06.360Z,101110
2023-04-09T09:29:02.348Z,101110
2023-04-09T09:30:01.262Z,101100
2023-04-09T09:31:07.909Z,101100
2023-04-09T09:32:00.481Z,101100
2023-04-09T09:33:04.992Z,101100
2023-04-09T09:34:07.594Z,101100
2023-04-09T09:35:02.752Z,101100
2023-04-09T09:36:01.058Z,101100
2023-04-09T09:37:00.415Z,101100
2023-04-09T09:38:01.310Z,101100
2023-04-09T09:39:01.251Z,101100
2023-04-09T09:40:00.558Z,101100
2023-04-09T09:41:17.927Z,101100
2023-04-09T09:42:07.902Z,101100
2023-04-09T09:43:00.393Z,101100
2023-04-09T09:44:00.482Z,101100
2023-04-09T09:45:00.664Z,101100
2023-04-09T09:46:00.895Z,101100
2023-04-09T09:47:02.754Z,101100
2023-04-09T09:48:00.456Z,101090
2023-04-09T09:49:00.542Z,101090
2023-04-09T09:50:01.500Z,101090
2023-04-09T09:51:02.417Z,101090
2023-04-09T09:52:02.928Z,101090
2023-04-09T09:53:03.338Z,101090
2023-04-09T09:54:01.620Z,101090
2023-04-09T09:55:04.786Z,101090
2023-04-09T09:56:00.468Z,101080
2023-04-09T09:57:04.518Z,101080
2023-04-09T09:58:02.288Z,101080
2023-04-09T09:59:11.401Z,101090
2023-04-09T10:00:01.801Z,101080
2023-04-09T10:01:01.641Z,101080
2023-04-09T10:02:04.117Z,101080
2023-04-09T10:03:13.043Z,101080
2023-04-09T10:04:01.524Z,101080
2023-04-09T10:05:00.715Z,101080
2023-04-09T10:06:02.296Z,101080
2023-04-09T10:07:04.069Z,101080
2023-04-09T10:08:01.624Z,101080
2023-04-09T10:09:03.777Z,101080
2023-04-09T10:10:01.832Z,101070
2023-04-09T10:11:01.378Z,101080
2023-04-09T10:12:03.152Z,101070
2023-04-09T10:13:01.696Z,101080
2023-04-09T10:14:01.396Z,101080
2023-04-09T10:15:00.524Z,101070
2023-04-09T10:16:00.619Z,101070
2023-04-09T10:17:01.367Z,101070
2023-04-09T10:18:00.472Z,101070
2023-04-09T10:19:01.428Z,101070
2023-04-09T10:20:09.252Z,101080
2023-04-09T10:21:15.947Z,101080
2023-04-09T10:22:09.162Z,101080
2023-04-09T10:23:08.460Z,101080
2023-04-09T10:24:01.008Z,101080
2023-04-09T10:25:03.190Z,101090
2023-04-09T10:26:00.570Z,101090
2023-04-09T10:27:15.755Z,101090
2023-04-09T10:28:01.318Z,101090
2023-04-09T10:29:04.748Z,101090
2023-04-09T10:30:00.452Z,101090
2023-04-09T10:31:00.538Z,101090
2023-04-09T10:32:05.455Z,101080
2023-04-09T10:33:10.514Z,101080
2023-04-09T10:34:02.767Z,101090
2023-04-09T10:35:02.578Z,101080
2023-04-09T10:36:03.694Z,101090
2023-04-09T10:37:00.896Z,101080
2023-04-09T10:38:00.422Z,101080
2023-04-09T10:39:11.022Z,101080
2023-04-09T10:40:02.522Z,101080
2023-04-09T10:41:13.654Z,101080
2023-04-09T10:42:06.995Z,101080
2023-04-09T10:43:01.689Z,101080
2023-04-09T10:44:05.085Z,101080
2023-04-09T10:45:05.824Z,101080
2023-04-09T10:46:00.418Z,101080
2023-04-09T10:47:02.462Z,101080
2023-04-09T10:48:01.903Z,101080
2023-04-09T10:49:11.311Z,101080
2023-04-09T10:50:14.508Z,101080
2023-04-09T10:51:02.026Z,101080
2023-04-09T10:52:02.427Z,101080
2023-04-09T10:53:03.048Z,101080
2023-04-09T10:54:00.427Z,101080
2023-04-09T10:55:00.411Z,101080
2023-04-09T10:56:00.454Z,101080
2023-04-09T10:57:07.960Z,101080
2023-04-09T10:58:02.315Z,101080
2023-04-09T10:59:00.439Z,101080
2023-04-09T11:00:00.408Z,101080
2023-04-09T11:01:00.420Z,101070
2023-04-09T11:02:00.671Z,101080
2023-04-09T11:03:01.625Z,101070
2023-04-09T11:04:08.992Z,101070
2023-04-09T11:05:20.335Z,101080
2023-04-09T11:06:02.694Z,101080
2023-04-09T11:07:03.006Z,101080
2023-04-09T11:08:10.314Z,101070
2023-04-09T11:09:00.826Z,101080
2023-04-09T11:10:00.429Z,101080
2023-04-09T11:11:01.407Z,101080
2023-04-09T11:12:00.441Z,101080
2023-04-09T11:13:01.787Z,101080
2023-04-09T11:14:00.404Z,101080
2023-04-09T11:15:00.476Z,101080
2023-04-09T11:16:00.582Z,101090
2023-04-09T11:17:02.323Z,101080
2023-04-09T11:18:00.688Z,101080
2023-04-09T11:19:00.484Z,101080
2023-04-09T11:20:02.511Z,101080
2023-04-09T11:21:02.334Z,101080
2023-04-09T11:22:03.485Z,101080
2023-04-09T11:23:01.009Z,101080
2023-04-09T11:24:00.415Z,101080
2023-04-09T11:25:00.747Z,101080
2023-04-09T11:26:00.472Z,101080
2023-04-09T11:27:00.398Z,101080
2023-04-09T11:28:02.687Z,101080
2023-04-09T11:29:04.671Z,101080
2023-04-09T11:30:00.416Z,101080
2023-04-09T11:31:03.719Z,101080
2023-04-09T11:32:00.721Z,101080
2023-04-09T11:33:00.925Z,101080
2023-04-09T11:34:00.995Z,101070
2023-04-09T11:35:00.491Z,101070
2023-04-09T11:36:01.463Z,101070
2023-04-09T11:37:00.429Z,101070
2023-04-09T11:38:00.522Z,101070
2023-04-09T11:39:01.364Z,101070
2023-04-09T11:40:00.399Z,101070
2023-04-09T11:41:00.664Z,101070
2023-04-09T11:42:00.461Z,101070
2023-04-09T11:43:00.476Z,101070
2023-04-09T11:44:02.860Z,101070
2023-04-09T11:45:01.109Z,101070
2023-04-09T11:46:00.703Z,101070
2023-04-09T11:47:00.986Z,101070
2023-04-09T11:48:01.669Z,101070
2023-04-09T11:49:01.672Z,101070
2023-04-09T11:50:00.658Z,101070
2023-04-09T11:51:00.931Z,101060
2023-04-09T11:52:00.747Z,101070
2023-04-09T11:53:00.450Z,101070
2023-04-09T11:54:01.377Z,101070
2023-04-09T11:55:01.141Z,101070
2023-04-09T11:56:00.578Z,101080
2023-04-09T11:57:03.298Z,101070
2023-04-09T11:58:00.427Z,101070
2023-04-09T11:59:01.029Z,101070
2023-04-09T12:00:05.342Z,101070
2023-04-09T12:01:00.590Z,101080
2023-04-09T12:02:00.492Z,101080
2023-04-09T12:03:02.260Z,101080
2023-04-09T12:04:01.034Z,101080
2023-04-09T12:05:03.773Z,101080
2023-04-09T12:06:01.806Z,101080
2023-04-09T12:07:00.543Z,101080
2023-04-09T12:08:02.699Z,101080
2023-04-09T12:09:00.420Z,101080
2023-04-09T12:10:05.476Z,101080
2023-04-09T12:11:10.623Z,101080
2023-04-09T12:12:00.442Z,101090
2023-04-09T12:13:03.067Z,101090
2023-04-09T12:14:01.322Z,101080
2023-04-09T12:15:08.939Z,101080
2023-04-09T12:16:00.717Z,101080
2023-04-09T12:17:00.557Z,101090
2023-04-09T12:18:00.922Z,101080
2023-04-09T12:19:08.860Z,101080
2023-04-09T12:20:00.403Z,101080
2023-04-09T12:21:00.421Z,101080
2023-04-09T12:22:00.397Z,101080
2023-04-09T12:23:02.188Z,101080
2023-04-09T12:24:00.406Z,101090
2023-04-09T12:25:00.397Z,101090
2023-04-09T12:26:00.484Z,101090
2023-04-09T12:27:00.426Z,101090
2023-04-09T12:28:00.431Z,101090